createdAt,value
2018-11-04T00:00:30.415Z,101399.11
2018-11-04T00:05:13.630Z,101392.97
2018-11-04T00:09:56.527Z,101391.41
2018-11-04T00:14:39.462Z,101381.84
2018-11-04T00:19:24.532Z,101372.27
2018-11-04T00:24:07.429Z,101370.91
2018-11-04T00:28:51.477Z,101364.86
2018-11-04T00:33:34.410Z,101361.55
2018-11-04T00:38:24.087Z,101360.77
2018-11-04T00:43:06.973Z,101349.70
2018-11-04T00:47:51.987Z,101351.25
2018-11-04T00:52:34.878Z,101339.55
2018-11-04T00:57:19.071Z,101337.45
2018-11-04T01:02:02.011Z,101333.37
2018-11-04T01:06:45.148Z,101335.03
2018-11-04T01:11:28.070Z,101333.56
2018-11-04T01:16:12.078Z,101330.95
2018-11-04T01:20:54.970Z,101329.41
2018-11-04T01:25:38.857Z,101320.85
2018-11-04T01:30:21.859Z,101329.64
2018-11-04T01:35:05.566Z,101323.24
2018-11-04T01:39:48.428Z,101328.96
2018-11-04T01:44:31.310Z,101323.27
2018-11-04T01:49:14.320Z,101324.98
2018-11-04T01:53:57.210Z,101313.59
2018-11-04T01:58:42.081Z,101307.11
2018-11-04T02:03:24.956Z,101307.48
2018-11-04T02:08:09.924Z,101307.33
2018-11-04T02:12:52.835Z,101306.44
2018-11-04T02:17:38.155Z,101308.33
2018-11-04T02:22:21.078Z,101307.38
2018-11-04T02:27:06.161Z,101307.05
2018-11-04T02:31:49.078Z,101303.80
2018-11-04T02:36:33.177Z,101310.77
2018-11-04T02:41:16.056Z,101307.41
2018-11-04T02:45:59.160Z,101307.18
2018-11-04T02:50:42.133Z,101306.16
2018-11-04T02:55:26.222Z,101311.48
2018-11-04T03:00:13.397Z,101308.45
2018-11-04T03:04:56.665Z,101311.64
2018-11-04T03:09:39.571Z,101314.08
2018-11-04T03:14:22.438Z,101311.59
2018-11-04T03:19:05.606Z,101303.94
2018-11-04T03:23:48.506Z,101311.31
2018-11-04T03:28:32.523Z,101306.30
2018-11-04T03:33:15.442Z,101316.62
2018-11-04T03:37:59.559Z,101314.06
2018-11-04T03:42:42.860Z,101317.25
2018-11-04T03:47:26.866Z,101313.00
2018-11-04T03:52:09.773Z,101313.78
2018-11-04T03:56:53.934Z,101317.39
2018-11-04T04:01:36.892Z,101317.91
2018-11-04T04:06:19.937Z,101322.69
2018-11-04T04:11:02.921Z,101310.57
2018-11-04T04:15:47.007Z,101315.84
2018-11-04T04:20:29.934Z,101312.52
2018-11-04T04:25:13.304Z,101313.89
2018-11-04T04:29:56.301Z,101311.63
2018-11-04T04:36:10.228Z,101313.69
2018-11-04T04:40:54.873Z,101322.44
2018-11-04T04:45:39.050Z,101332.18
2018-11-04T04:50:24.109Z,101332.27
2018-11-04T04:55:07.149Z,101339.70
2018-11-04T04:59:51.571Z,101346.99
2018-11-04T05:04:35.591Z,101355.39
2018-11-04T05:09:18.936Z,101365.27
2018-11-04T05:14:02.120Z,101380.35
2018-11-04T05:18:46.198Z,101381.33
2018-11-04T05:23:30.813Z,101386.73
2018-11-04T05:28:15.201Z,101399.44
2018-11-04T05:32:58.701Z,101403.79
2018-11-04T05:37:42.151Z,101405.05
2018-11-04T05:42:26.143Z,101415.86
2018-11-04T05:47:11.735Z,101414.70
2018-11-04T05:51:59.191Z,101413.52
2018-11-04T05:56:49.717Z,101407.06
2018-11-04T06:01:33.741Z,101411.81
2018-11-04T06:06:19.601Z,101412.23
2018-11-04T06:11:06.557Z,101419.95
2018-11-04T06:15:50.732Z,101419.14
2018-11-04T06:20:33.675Z,101422.22
2018-11-04T06:25:16.655Z,101420.44
2018-11-04T06:29:59.505Z,101418.97
2018-11-04T06:34:43.523Z,101429.61
2018-11-04T06:39:26.390Z,101433.02
2018-11-04T06:44:09.263Z,101420.85
2018-11-04T06:48:52.326Z,101417.72
2018-11-04T06:53:35.222Z,101423.23
2018-11-04T06:58:19.151Z,101420.52
2018-11-04T07:03:02.031Z,101419.30
2018-11-04T07:07:45.187Z,101418.80
2018-11-04T07:12:28.491Z,101405.61
2018-11-04T07:17:12.459Z,101407.38
2018-11-04T07:21:55.371Z,101402.19
2018-11-04T07:26:38.688Z,101394.08
2018-11-04T07:31:21.590Z,101393.52
2018-11-04T07:36:05.171Z,101387.73
2018-11-04T07:40:51.323Z,101389.44
2018-11-04T07:45:34.373Z,101382.55
2018-11-04T07:50:17.234Z,101391.44
2018-11-04T07:55:00.143Z,101391.22
2018-11-04T07:59:43.104Z,101389.16
2018-11-04T08:04:26.293Z,101387.40
2018-11-04T08:09:09.988Z,101389.59
2018-11-04T08:13:52.897Z,101385.30
2018-11-04T08:18:37.886Z,101377.47
2018-11-04T08:23:20.828Z,101371.56
2018-11-04T08:28:05.387Z,101376.17
2018-11-04T08:32:48.254Z,101377.64
2018-11-04T08:37:32.343Z,101381.54
2018-11-04T08:42:15.194Z,101382.94
2018-11-04T08:46:59.247Z,101384.09
2018-11-04T08:51:42.124Z,101386.03
2018-11-04T08:56:25.149Z,101378.31
2018-11-04T09:01:08.098Z,101373.13
2018-11-04T09:05:52.069Z,101372.92
2018-11-04T09:10:35.051Z,101370.55
2018-11-04T09:15:18.116Z,101358.03
2018-11-04T09:20:01.027Z,101356.52
2018-11-04T09:24:44.155Z,101358.55
2018-11-04T09:29:27.775Z,101355.55
2018-11-04T09:34:14.357Z,101351.53
2018-11-04T09:38:57.227Z,101344.91
2018-11-04T09:43:40.127Z,101341.64
2018-11-04T09:48:23.179Z,101336.73
2018-11-04T09:53:06.742Z,101325.88
2018-11-04T09:57:50.772Z,101324.11
2018-11-04T10:02:33.694Z,101318.28
2018-11-04T10:07:17.848Z,101303.48
2018-11-04T10:12:00.771Z,101301.91
2018-11-04T10:16:44.827Z,101300.59
2018-11-04T10:21:27.722Z,101293.64
2018-11-04T10:26:12.685Z,101285.05
2018-11-04T10:30:55.604Z,101286.05
2018-11-04T10:35:38.502Z,101283.59
2018-11-04T10:40:21.403Z,101270.87
2018-11-04T10:45:07.610Z,101276.86
2018-11-04T10:49:50.537Z,101269.41
2018-11-04T10:54:34.509Z,101264.54
2018-11-04T10:59:17.474Z,101266.20
2018-11-04T11:04:04.685Z,101262.33
2018-11-04T11:08:47.651Z,101264.71
2018-11-04T11:13:32.171Z,101257.89
2018-11-04T11:18:15.922Z,101256.64
2018-11-04T11:22:58.999Z,101256.80
2018-11-04T11:27:45.548Z,101259.30
2018-11-04T11:32:28.438Z,101261.41
2018-11-04T11:37:14.577Z,101248.25
2018-11-04T11:41:57.471Z,101253.09
2018-11-04T11:46:44.147Z,101252.40
2018-11-04T11:51:27.115Z,101250.28
2018-11-04T11:56:11.223Z,101246.38
2018-11-04T12:00:54.084Z,101246.64
2018-11-04T12:05:40.541Z,101246.27
2018-11-04T12:10:23.435Z,101231.48
2018-11-04T12:15:12.114Z,101238.06
2018-11-04T12:19:55.149Z,101242.42
2018-11-04T12:24:39.419Z,101232.46
2018-11-04T12:29:23.486Z,101235.05
2018-11-04T12:34:09.145Z,101227.08
2018-11-04T12:38:52.055Z,101224.01
2018-11-04T12:43:36.202Z,101220.00
2018-11-04T12:48:19.129Z,101216.17
2018-11-04T12:53:02.051Z,101224.63
2018-11-04T12:57:46.112Z,101217.95
2018-11-04T13:02:29.037Z,101218.73
2018-11-04T13:07:15.755Z,101225.29
2018-11-04T13:11:58.711Z,101226.22
2018-11-04T13:16:47.795Z,101224.37
2018-11-04T13:21:31.684Z,101229.27
2018-11-04T13:26:18.510Z,101241.62
2018-11-04T13:31:01.432Z,101234.05
2018-11-04T13:35:45.607Z,101239.91
2018-11-04T13:40:28.529Z,101241.45
2018-11-04T13:45:12.236Z,101236.42
2018-11-04T13:49:55.198Z,101241.68
2018-11-04T13:54:40.497Z,101243.05
2018-11-04T13:59:24.851Z,101233.81
2018-11-04T14:04:07.924Z,101239.08
2018-11-04T14:08:50.846Z,101233.06
2018-11-04T14:13:34.823Z,101236.82
2018-11-04T14:18:17.795Z,101234.13
2018-11-04T14:23:00.679Z,101237.46
2018-11-04T14:27:44.683Z,101235.06
2018-11-04T14:32:27.657Z,101243.66
2018-11-04T14:37:12.726Z,101240.02
2018-11-04T14:41:55.634Z,101236.24
2018-11-04T14:46:41.592Z,101236.63
2018-11-04T14:51:24.464Z,101243.31
2018-11-04T14:56:11.163Z,101239.74
2018-11-04T15:00:54.138Z,101242.98
2018-11-04T15:05:38.326Z,101241.03
2018-11-04T15:10:21.199Z,101243.58
2018-11-04T15:15:08.252Z,101240.39
2018-11-04T15:19:51.240Z,101240.88
2018-11-04T15:24:34.374Z,101237.58
2018-11-04T15:29:17.257Z,101236.63
2018-11-04T15:34:03.562Z,101238.03
2018-11-04T15:38:46.458Z,101240.14
2018-11-04T15:43:30.582Z,101238.16
2018-11-04T15:48:13.528Z,101240.29
2018-11-04T15:52:56.433Z,101238.88
2018-11-04T15:57:39.746Z,101236.32
2018-11-04T16:02:23.614Z,101242.02
2018-11-04T16:07:09.572Z,101246.47
2018-11-04T16:11:52.516Z,101248.11
2018-11-04T16:16:35.579Z,101242.66
2018-11-04T16:21:18.961Z,101249.53
2018-11-04T16:26:05.403Z,101249.92
2018-11-04T16:30:50.245Z,101251.91
2018-11-04T16:35:33.266Z,101246.31
2018-11-04T16:40:16.281Z,101245.70
2018-11-04T16:45:00.114Z,101249.78
2018-11-04T16:49:43.430Z,101243.70
2018-11-04T16:54:26.586Z,101250.24
2018-11-04T16:59:10.395Z,101252.91
2018-11-04T17:03:53.635Z,101246.87
2018-11-04T17:08:36.522Z,101245.20
2018-11-04T17:13:19.603Z,101247.25
2018-11-04T17:18:02.586Z,101245.38
2018-11-04T17:22:45.809Z,101250.08
2018-11-04T17:27:29.837Z,101252.06
2018-11-04T17:32:12.953Z,101259.12
2018-11-04T17:36:57.928Z,101261.02
2018-11-04T17:41:41.163Z,101260.44
2018-11-04T17:46:26.272Z,101254.39
2018-11-04T17:51:09.221Z,101259.05
2018-11-04T18:00:34.989Z,101251.34
2018-11-04T18:05:18.037Z,101257.61
2018-11-04T18:10:00.988Z,101253.77
2018-11-04T18:14:47.371Z,101255.45
2018-11-04T18:19:33.892Z,101251.02
2018-11-04T18:24:19.965Z,101255.92
2018-11-04T18:55:21.692Z,101263.00
2018-11-04T19:21:47.345Z,101267.42
2018-11-04T19:26:43.422Z,101276.99
2018-11-04T19:31:26.492Z,101278.84
2018-11-04T19:36:09.358Z,101274.66
2018-11-04T19:40:53.247Z,101282.78
2018-11-04T19:50:33.049Z,101281.23
2018-11-04T19:55:16.988Z,101275.75
2018-11-04T20:00:00.829Z,101278.64
2018-11-04T20:04:44.153Z,101276.98
2018-11-04T20:09:27.262Z,101278.28
2018-11-04T20:14:14.686Z,101276.70
2018-11-04T20:19:03.188Z,101274.14
2018-11-04T20:23:46.503Z,101273.42
2018-11-04T20:28:29.753Z,101276.05
2018-11-04T20:33:14.372Z,101265.00
2018-11-04T20:37:57.551Z,101262.53
2018-11-04T20:42:41.943Z,101262.89
2018-11-04T20:47:30.393Z,101265.73
2018-11-04T20:52:20.385Z,101263.12
2018-11-04T20:57:08.987Z,101257.49
2018-11-04T21:01:52.128Z,101260.23
2018-11-04T21:06:35.425Z,101265.23
2018-11-04T21:11:18.467Z,101268.93
2018-11-04T21:16:01.796Z,101264.30
2018-11-04T21:20:45.068Z,101262.80
2018-11-04T21:25:28.386Z,101266.91
2018-11-04T21:30:12.501Z,101267.70
2018-11-04T21:34:56.618Z,101257.52
2018-11-04T21:39:39.639Z,101251.77
2018-11-04T21:44:22.945Z,101245.33
2018-11-04T21:49:05.921Z,101245.94
2018-11-04T21:53:49.080Z,101242.00
2018-11-04T21:58:32.089Z,101237.55
2018-11-04T22:03:15.436Z,101236.19
2018-11-04T22:07:58.320Z,101233.27
2018-11-04T22:12:42.792Z,101236.51
2018-11-04T22:17:25.863Z,101231.17
2018-11-04T22:22:10.768Z,101230.78
2018-11-04T22:26:53.722Z,101231.42
2018-11-04T22:31:36.655Z,101223.89
2018-11-04T22:36:20.891Z,101223.70
2018-11-04T22:41:03.839Z,101224.05
2018-11-04T22:45:46.910Z,101226.29
2018-11-04T22:50:29.836Z,101222.85
2018-11-04T22:55:13.805Z,101222.89
2018-11-04T22:59:56.714Z,101218.13
2018-11-04T23:04:46.148Z,101218.30
2018-11-04T23:09:29.093Z,101220.45
2018-11-04T23:14:13.154Z,101220.66
2018-11-04T23:18:56.093Z,101222.80
2018-11-04T23:23:40.204Z,101224.07
2018-11-04T23:28:23.159Z,101216.03
2018-11-04T23:33:07.198Z,101215.72
2018-11-04T23:37:50.086Z,101224.53
2018-11-04T23:42:33.257Z,101223.21
2018-11-04T23:47:16.193Z,101213.58
2018-11-04T23:52:00.308Z,101219.43
2018-11-04T23:56:52.109Z,101212.09
